Time;durP1;ratioP1;P1;durP2;ratioP2;P2;SDS_P1;SDS_P2;PMS_P1;PMS_P2;Temp;Humidity;BMP_temperature;BMP_pressure;BME280_temperature;BME280_humidity;BME280_pressure;Samples;Min_cycle;Max_cycle;Signal;HPM_P1;HPM_P2
2022/12/23 00:01:12;;;;;;;40.90;27.47;;;;;;;40.94;36.83;101089.69;5095638;28;20876;-74
2022/12/23 00:03:38;;;;;;;45.40;31.13;;;;;;;41.14;36.07;101080.09;5095865;28;20478;-75
2022/12/23 00:06:11;;;;;;;43.57;30.90;;;;;;;41.13;36.54;101073.03;5095794;28;20843;-75
2022/12/23 00:08:37;;;;;;;54.77;31.83;;;;;;;41.37;35.78;101074.44;5096006;28;20961;-73
2022/12/23 00:11:05;;;;;;;44.43;32.30;;;;;;;41.36;35.93;101073.63;5096087;28;20424;-73
2022/12/23 00:16:16;;;;;;;62.37;36.60;;;;;;;41.23;36.38;101089.00;5114020;28;20897;-74
2022/12/23 00:18:42;;;;;;;45.03;33.97;;;;;;;41.32;36.22;101081.66;5091969;28;20568;-74
2022/12/23 00:21:11;;;;;;;43.13;34.90;;;;;;;41.24;36.23;101085.16;5093473;28;20269;-74
2022/12/23 00:23:40;;;;;;;52.73;35.83;;;;;;;41.38;35.99;101076.84;5094396;28;20412;-76
2022/12/23 00:26:07;;;;;;;48.77;38.13;;;;;;;41.38;35.75;101070.59;5112078;28;20393;-75
2022/12/23 00:28:33;;;;;;;58.60;38.40;;;;;;;41.42;35.99;101066.09;5093492;28;20925;-75
2022/12/23 00:31:04;;;;;;;54.77;38.87;;;;;;;41.51;35.90;101064.16;5093304;28;20427;-75
2022/12/23 00:33:33;;;;;;;73.53;48.10;;;;;;;41.34;35.82;101059.56;5095369;28;20307;-74
2022/12/23 00:36:00;;;;;;;77.47;49.33;;;;;;;41.35;36.01;101055.72;5083660;28;20485;-74
2022/12/23 00:44:03;;;;;;;74.37;48.90;;;;;;;41.54;35.76;101052.59;5073407;28;20419;-77
2022/12/23 00:46:31;;;;;;;69.83;47.70;;;;;;;41.54;35.76;101045.22;5094026;28;20415;-74
2022/12/23 00:51:41;;;;;;;75.37;48.67;;;;;;;41.50;35.69;101032.59;5110822;28;20435;-72
2022/12/23 00:54:07;;;;;;;68.47;44.93;;;;;;;41.56;35.66;101039.47;5094823;28;20443;-74
2022/12/23 00:56:33;;;;;;;73.17;51.63;;;;;;;41.51;35.49;101028.75;5112933;28;20154;-74
2022/12/23 00:58:59;;;;;;;66.63;47.23;;;;;;;41.50;35.73;101040.78;5092855;28;20828;-76
2022/12/23 01:06:59;;;;;;;65.53;48.90;;;;;;;41.57;35.64;101032.88;5108419;28;21032;-75
2022/12/23 01:09:26;;;;;;;63.97;47.27;;;;;;;41.53;35.55;101032.72;5072647;28;20891;-77
2022/12/23 01:11:51;;;;;;;65.93;49.03;;;;;;;41.45;35.52;101019.16;5072581;28;20458;-76
2022/12/23 01:14:18;;;;;;;79.17;48.60;;;;;;;41.52;35.65;101014.81;5089938;28;20448;-77
2022/12/23 01:16:44;;;;;;;78.97;50.53;;;;;;;41.45;35.42;101000.09;5092723;28;20412;-75
2022/12/23 01:19:10;;;;;;;69.03;50.93;;;;;;;41.49;35.40;101011.91;5088970;28;20472;-75
2022/12/23 01:21:36;;;;;;;76.07;53.50;;;;;;;41.53;35.55;101018.31;5089335;28;20433;-75
2022/12/23 01:24:02;;;;;;;72.53;54.57;;;;;;;41.51;35.45;101015.94;5091259;28;20803;-76
2022/12/23 01:26:28;;;;;;;69.80;49.50;;;;;;;41.56;35.35;101012.22;5091324;28;20448;-73
2022/12/23 01:28:56;;;;;;;83.63;59.67;;;;;;;41.37;35.55;101004.44;5091546;28;20409;-74
2022/12/23 01:31:23;;;;;;;90.83;61.50;;;;;;;41.37;35.85;101003.66;5091176;28;20447;-73
2022/12/23 01:33:50;;;;;;;92.70;64.77;;;;;;;41.33;35.80;101001.59;5090240;28;20409;-76
2022/12/23 01:36:16;;;;;;;87.23;61.60;;;;;;;41.42;36.10;101006.19;5089325;28;20405;-77
2022/12/23 01:38:42;;;;;;;79.90;61.53;;;;;;;41.29;35.91;100992.44;5088526;28;20457;-69
2022/12/23 01:42:42;;;;;;;102.93;61.43;;;;;;;41.42;35.48;101003.47;5085356;28;20425;-75
2022/12/23 01:43:55;;;;;;;90.73;60.03;;;;;;;41.50;35.61;101005.38;5090468;28;20232;-76
2022/12/23 01:46:21;;;;;;;95.80;66.83;;;;;;;41.45;35.42;100989.22;5089151;28;20437;-77
2022/12/23 01:48:51;;;;;;;87.03;65.70;;;;;;;41.46;35.57;100982.63;5089435;28;20220;-76
2022/12/23 01:51:25;;;;;;;90.57;62.33;;;;;;;41.37;35.46;100981.88;5104334;28;20568;-74
2022/12/23 01:53:56;;;;;;;87.83;66.20;;;;;;;41.38;35.55;100973.41;5108024;28;20501;-73
2022/12/23 01:56:31;;;;;;;90.23;67.27;;;;;;;41.12;36.18;100970.72;5086677;28;20493;-74
2022/12/23 01:59:01;;;;;;;96.23;70.70;;;;;;;41.04;36.43;100980.53;5089104;28;20459;-74
2022/12/23 02:04:18;;;;;;;84.60;65.67;;;;;;;40.73;36.60;100979.94;5094532;28;20454;-76
2022/12/23 02:09:39;;;;;;;87.40;64.63;;;;;;;41.04;36.32;100977.00;5094307;28;20381;-76
2022/12/23 02:12:29;;;;;;;92.00;65.47;;;;;;;41.11;36.14;100974.56;5090969;28;20456;-72
2022/12/23 02:17:57;;;;;;;100.27;67.90;;;;;;;41.06;36.46;100972.81;5097139;28;20517;-75
2022/12/23 02:20:44;;;;;;;96.43;67.83;;;;;;;40.20;37.52;100968.25;5088925;28;20440;-74
2022/12/23 02:23:28;;;;;;;93.20;68.53;;;;;;;39.82;38.80;100976.19;5075535;28;20815;-75
2022/12/23 02:25:54;;;;;;;103.03;71.87;;;;;;;40.15;38.04;100983.97;5086270;28;21001;-73
2022/12/23 02:28:48;;;;;;;97.83;76.23;;;;;;;39.22;39.68;100988.41;5108995;28;20510;-76
2022/12/23 02:31:25;;;;;;;105.70;73.43;;;;;;;40.21;38.50;100997.06;5109076;28;20182;-77
2022/12/23 02:34:06;;;;;;;95.80;74.47;;;;;;;40.25;38.32;100994.50;5095845;28;20504;-74
2022/12/23 02:36:48;;;;;;;115.80;82.90;;;;;;;40.09;38.44;100993.38;5095660;28;20416;-74
2022/12/23 02:39:41;;;;;;;110.03;79.20;;;;;;;40.34;38.21;100994.50;5095487;28;20463;-76
2022/12/23 02:42:19;;;;;;;92.63;73.60;;;;;;;40.34;38.36;100999.94;5114640;28;20431;-74
2022/12/23 02:44:48;;;;;;;85.23;71.07;;;;;;;40.01;39.06;100993.00;5108934;28;20432;-75
2022/12/23 02:47:23;;;;;;;98.97;74.30;;;;;;;39.92;38.64;100980.53;5112686;28;20448;-75
2022/12/23 02:50:00;;;;;;;99.20;70.00;;;;;;;39.96;38.63;100979.59;5112485;28;20480;-75
2022/12/23 02:52:30;;;;;;;94.90;69.70;;;;;;;40.41;37.93;100973.88;5112521;28;20435;-77
2022/12/23 02:55:02;;;;;;;105.20;81.37;;;;;;;40.14;38.36;100976.91;5112482;28;20408;-77
2022/12/23 02:57:37;;;;;;;101.57;75.57;;;;;;;40.14;38.03;100979.63;5111362;28;20423;-74
2022/12/23 03:00:05;;;;;;;103.97;74.57;;;;;;;39.29;39.46;100979.84;5095435;28;20438;-76
2022/12/23 03:02:37;;;;;;;95.47;70.83;;;;;;;39.21;39.64;100969.72;5094621;28;20436;-76
2022/12/23 03:05:04;;;;;;;101.53;75.03;;;;;;;39.50;39.29;100980.88;5112162;28;20537;-76
2022/12/23 03:07:34;;;;;;;99.77;74.07;;;;;;;39.57;39.15;100972.28;5093580;28;20400;-75
2022/12/23 03:10:15;;;;;;;88.43;71.40;;;;;;;40.09;38.00;100979.78;5093641;28;20404;-75
2022/12/23 03:12:52;;;;;;;92.73;71.33;;;;;;;40.41;37.40;100978.53;5093114;28;20411;-75
2022/12/23 03:15:35;;;;;;;77.13;58.60;;;;;;;40.10;37.53;100976.75;5094472;28;20522;-73
2022/12/23 03:18:19;;;;;;;75.43;59.50;;;;;;;40.34;37.43;100980.91;5099480;28;20473;-75
2022/12/23 03:21:27;;;;;;;89.07;59.77;;;;;;;40.51;36.98;100983.63;5073038;28;20425;-74
2022/12/23 03:24:04;;;;;;;76.37;59.17;;;;;;;40.21;37.15;100982.69;5051207;28;20496;-73
2022/12/23 03:26:56;;;;;;;79.93;59.50;;;;;;;39.73;37.95;100969.97;5088083;28;20424;-74
2022/12/23 03:29:31;;;;;;;71.63;55.87;;;;;;;39.96;37.67;100986.91;5087916;28;20991;-76
2022/12/23 03:32:01;;;;;;;79.27;55.70;;;;;;;39.60;37.99;100990.69;5084913;28;20424;-76
2022/12/23 03:34:32;;;;;;;65.90;49.57;;;;;;;39.78;37.31;100983.38;5093017;28;21128;-77
2022/12/23 03:37:02;;;;;;;60.90;46.30;;;;;;;39.82;36.55;100984.34;5092917;28;20397;-74
2022/12/23 03:39:33;;;;;;;62.10;46.47;;;;;;;39.97;36.32;100989.34;5091563;28;20509;-75
2022/12/23 03:42:26;;;;;;;64.07;46.03;;;;;;;38.79;36.90;100990.84;5092977;28;20919;-73
2022/12/23 03:44:55;;;;;;;52.93;43.00;;;;;;;37.97;37.94;101001.91;5085062;28;20417;-73
2022/12/23 03:47:29;;;;;;;53.53;41.90;;;;;;;38.22;37.88;100993.22;5092064;28;20441;-73
2022/12/23 03:49:59;;;;;;;51.30;40.20;;;;;;;39.19;36.37;100994.47;5088740;28;20452;-73
2022/12/23 03:52:40;;;;;;;59.53;43.93;;;;;;;38.43;37.19;100999.03;5092782;28;20504;-76
2022/12/23 03:55:13;;;;;;;55.83;43.73;;;;;;;38.87;36.58;100986.63;5092353;28;20463;-76
2022/12/23 03:58:01;;;;;;;53.10;46.53;;;;;;;39.45;36.02;100991.88;5091072;28;20464;-76
2022/12/23 04:00:32;;;;;;;62.67;43.23;;;;;;;39.16;36.29;100988.84;5092535;28;20823;-76
2022/12/23 04:03:16;;;;;;;63.97;45.90;;;;;;;39.55;35.85;100996.22;5090812;28;20412;-74
2022/12/23 04:05:50;;;;;;;63.63;46.10;;;;;;;39.78;34.94;100994.25;5092944;28;20417;-74
2022/12/23 04:08:24;;;;;;;68.37;50.47;;;;;;;38.92;36.88;101000.84;5082583;28;20520;-77
2022/12/23 04:10:51;;;;;;;78.53;51.80;;;;;;;38.59;37.30;100986.69;5077992;28;20410;-74
2022/12/23 04:13:17;;;;;;;76.87;60.00;;;;;;;37.87;37.63;100995.56;5069594;28;20825;-77
2022/12/23 04:15:43;;;;;;;77.53;59.87;;;;;;;38.36;37.16;100991.28;5068361;28;20916;-74
2022/12/23 04:18:10;;;;;;;89.23;62.10;;;;;;;38.76;36.14;100996.09;5078957;28;20219;-78
2022/12/23 04:20:36;;;;;;;85.33;65.77;;;;;;;38.37;36.04;101001.06;5109510;28;21020;-78
2022/12/23 04:23:03;;;;;;;88.50;64.93;;;;;;;38.26;35.58;100998.84;5093040;28;20408;-77
2022/12/23 04:25:29;;;;;;;85.33;57.90;;;;;;;37.87;34.84;100990.16;5092880;28;20485;-75
2022/12/23 04:27:54;;;;;;;90.60;62.30;;;;;;;38.14;34.65;100996.66;5092820;28;20412;-76
2022/12/23 04:30:20;;;;;;;78.50;57.80;;;;;;;38.22;34.27;100992.41;5093574;28;20208;-75
2022/12/23 04:32:46;;;;;;;77.20;60.50;;;;;;;38.37;33.66;100992.13;5094069;28;20250;-76
2022/12/23 04:35:12;;;;;;;77.70;56.10;;;;;;;37.28;35.13;100986.41;5091824;28;20677;-77
2022/12/23 04:37:38;;;;;;;78.50;58.67;;;;;;;37.69;34.57;100995.66;5093261;28;20802;-74
2022/12/23 04:40:05;;;;;;;77.03;61.10;;;;;;;37.18;35.50;100997.41;5093362;28;20425;-74
2022/12/23 04:42:31;;;;;;;80.90;54.80;;;;;;;37.31;35.54;100987.69;5093316;28;20461;-77
2022/12/23 04:44:57;;;;;;;81.33;57.83;;;;;;;37.29;35.05;101000.72;5111616;28;20455;-74
2022/12/23 04:47:23;;;;;;;86.50;57.53;;;;;;;37.91;34.42;100996.59;5093591;28;20450;-76
2022/12/23 04:49:49;;;;;;;78.33;54.17;;;;;;;38.06;34.15;100995.47;5094654;28;20416;-73
2022/12/23 04:52:15;;;;;;;77.63;57.20;;;;;;;38.14;33.95;100994.75;5090984;28;20440;-74
2022/12/23 04:54:40;;;;;;;72.40;55.43;;;;;;;37.74;34.86;100976.59;5111940;28;20428;-75
2022/12/23 04:57:06;;;;;;;68.17;56.10;;;;;;;38.18;34.04;100997.63;5093103;28;20416;-74
2022/12/23 04:59:33;;;;;;;82.73;54.87;;;;;;;37.99;34.24;100984.22;5093178;28;20285;-76
2022/12/23 05:01:59;;;;;;;94.20;57.30;;;;;;;37.39;35.03;100968.13;5094738;28;20178;-73
2022/12/23 05:04:24;;;;;;;94.00;62.10;;;;;;;37.84;34.86;100987.28;5094949;28;20412;-76
2022/12/23 05:06:50;;;;;;;74.77;57.10;;;;;;;37.90;34.74;100981.44;5113109;28;20416;-74
2022/12/23 05:09:17;;;;;;;76.50;57.30;;;;;;;38.11;34.75;101000.75;5089559;28;20481;-73
2022/12/23 05:11:43;;;;;;;84.73;60.30;;;;;;;38.55;34.19;100998.47;5092209;28;20447;-75
2022/12/23 05:14:10;;;;;;;77.93;56.23;;;;;;;38.95;33.73;100999.41;5074683;28;20445;-74
2022/12/23 05:16:36;;;;;;;73.00;55.93;;;;;;;39.14;33.67;101007.34;5074360;28;20162;-74
2022/12/23 05:19:02;;;;;;;77.17;53.40;;;;;;;39.42;32.99;101002.56;5091459;28;20473;-73
2022/12/23 05:21:28;;;;;;;86.23;56.10;;;;;;;39.40;32.87;101010.19;5094358;28;20443;-73
2022/12/23 05:23:54;;;;;;;74.30;57.20;;;;;;;39.48;32.97;100995.88;5094928;28;20444;-74
2022/12/23 05:26:20;;;;;;;80.00;57.30;;;;;;;39.15;33.81;101023.31;5094751;28;20523;-73
2022/12/23 05:28:46;;;;;;;70.30;55.80;;;;;;;39.21;33.57;101015.88;5094645;28;20419;-73
2022/12/23 05:31:13;;;;;;;84.23;55.40;;;;;;;39.26;33.51;101023.06;5094768;28;20439;-73
2022/12/23 05:33:39;;;;;;;85.27;61.03;;;;;;;39.18;33.71;101019.22;5094790;28;20415;-75
2022/12/23 05:36:05;;;;;;;93.97;62.77;;;;;;;38.87;34.09;101019.94;5093066;28;20429;-74
2022/12/23 05:38:31;;;;;;;83.87;61.53;;;;;;;38.87;34.19;101014.53;5082611;28;20888;-73
2022/12/23 05:40:57;;;;;;;75.73;56.70;;;;;;;38.70;34.55;101022.50;5102063;28;20937;-76
2022/12/23 05:43:24;;;;;;;82.13;55.27;;;;;;;38.05;35.39;101023.66;5116019;28;20415;-74
2022/12/23 05:45:50;;;;;;;66.30;56.87;;;;;;;37.93;35.88;101034.19;5115649;28;20412;-73
2022/12/23 05:48:16;;;;;;;75.20;55.77;;;;;;;36.34;38.36;101027.06;5098626;28;20446;-74
2022/12/23 05:50:42;;;;;;;74.67;51.67;;;;;;;35.02;40.00;101023.81;5098494;28;20940;-74
2022/12/23 05:53:08;;;;;;;69.53;51.83;;;;;;;36.70;36.78;101038.16;5098192;28;20453;-75
2022/12/23 05:55:35;;;;;;;58.83;48.47;;;;;;;37.35;35.59;101045.56;5096988;28;20516;-73
2022/12/23 05:58:04;;;;;;;71.47;52.53;;;;;;;37.07;35.49;101045.44;5109766;28;20462;-71
2022/12/23 06:00:30;;;;;;;76.37;54.40;;;;;;;36.73;35.64;101058.41;5098375;28;20415;-73
2022/12/23 06:02:56;;;;;;;70.90;52.13;;;;;;;37.06;35.16;101059.25;5098341;28;20416;-76
2022/12/23 06:05:22;;;;;;;64.67;53.20;;;;;;;36.22;36.04;101065.28;5098256;28;20834;-73
2022/12/23 06:07:48;;;;;;;84.67;50.50;;;;;;;36.23;36.17;101071.50;5097731;28;20416;-73
2022/12/23 06:10:14;;;;;;;72.93;46.53;;;;;;;36.50;35.38;101082.50;5115903;28;20396;-71
2022/12/23 06:12:40;;;;;;;70.57;50.10;;;;;;;36.88;34.47;101079.81;5097415;28;20954;-73
2022/12/23 06:15:07;;;;;;;74.23;47.93;;;;;;;36.53;34.52;101076.53;5095984;28;20185;-73
2022/12/23 06:17:33;;;;;;;68.83;50.30;;;;;;;35.58;35.55;101082.69;5097260;28;20985;-73
2022/12/23 06:19:59;;;;;;;65.63;47.30;;;;;;;36.83;33.89;101098.78;5097985;28;20476;-73
2022/12/23 06:22:25;;;;;;;66.37;49.30;;;;;;;37.44;32.10;101097.06;5097265;28;20227;-73
2022/12/23 06:24:51;;;;;;;74.60;49.83;;;;;;;37.60;31.58;101101.94;5097137;28;20439;-73
2022/12/23 06:27:18;;;;;;;85.77;48.43;;;;;;;37.73;31.39;101113.88;5097178;28;20411;-75
2022/12/23 06:29:43;;;;;;;72.20;51.17;;;;;;;37.08;31.33;101105.78;5097072;28;20444;-74
2022/12/23 06:32:09;;;;;;;87.70;47.83;;;;;;;37.46;30.28;101100.31;5096894;28;20447;-73
2022/12/23 06:34:35;;;;;;;60.97;46.60;;;;;;;36.81;30.47;101101.00;5095635;28;20432;-74
2022/12/23 06:37:01;;;;;;;71.93;50.57;;;;;;;36.93;30.16;101109.50;5116074;28;20412;-75
2022/12/23 06:39:27;;;;;;;66.13;45.30;;;;;;;36.45;30.20;101112.28;5096174;28;20490;-73
2022/12/23 06:41:53;;;;;;;68.47;50.83;;;;;;;37.12;29.92;101121.09;5097493;28;20796;-73
2022/12/23 06:44:19;;;;;;;79.57;51.93;;;;;;;37.40;29.41;101115.81;5097760;28;20451;-73
2022/12/23 06:46:45;;;;;;;73.67;46.50;;;;;;;37.12;28.31;101126.50;5096539;28;20833;-73
2022/12/23 06:49:11;;;;;;;62.57;45.90;;;;;;;37.36;28.06;101128.31;5116015;28;20399;-73
2022/12/23 06:51:37;;;;;;;70.20;45.50;;;;;;;37.21;27.25;101134.78;5097347;28;20169;-72
2022/12/23 06:54:03;;;;;;;64.27;42.50;;;;;;;36.62;27.35;101132.63;5096535;28;20420;-73
2022/12/23 06:56:29;;;;;;;66.10;43.83;;;;;;;36.54;27.37;101134.88;5096710;28;20481;-71
2022/12/23 06:58:55;;;;;;;65.13;40.43;;;;;;;37.43;26.63;101144.97;5076844;28;20464;-73
2022/12/23 07:01:21;;;;;;;69.77;39.87;;;;;;;37.39;26.22;101135.88;5076834;28;20421;-74
2022/12/23 07:03:48;;;;;;;78.20;45.20;;;;;;;36.77;26.56;101137.81;5076926;28;20833;-75
2022/12/23 07:06:14;;;;;;;104.23;62.57;;;;;;;37.37;26.05;101148.88;5076655;28;20225;-71
2022/12/23 07:08:40;;;;;;;69.00;46.90;;;;;;;37.11;25.79;101143.03;5095020;28;20917;-74
2022/12/23 07:11:07;;;;;;;75.53;38.03;;;;;;;36.88;26.22;101163.63;5096290;28;20432;-76
2022/12/23 07:13:34;;;;;;;69.33;39.60;;;;;;;36.69;26.95;101154.69;5096514;28;20443;-74
2022/12/23 07:16:06;;;;;;;94.63;42.37;;;;;;;37.06;26.23;101162.84;5097182;28;20423;-81
2022/12/23 07:18:33;;;;;;;66.00;35.43;;;;;;;36.67;26.52;101163.09;5094042;28;20473;-78
2022/12/23 07:21:00;;;;;;;66.03;34.97;;;;;;;36.26;26.47;101168.13;5077087;28;20524;-76
2022/12/23 07:23:26;;;;;;;66.53;33.93;;;;;;;36.05;26.22;101167.56;5093207;28;20412;-76
2022/12/23 07:25:52;;;;;;;54.83;35.40;;;;;;;36.14;26.05;101173.94;5093199;28;20428;-76
2022/12/23 07:28:18;;;;;;;59.03;34.70;;;;;;;36.34;25.65;101172.94;5092495;28;20433;-76
2022/12/23 07:30:44;;;;;;;50.17;32.50;;;;;;;36.18;25.90;101174.19;5093755;28;20421;-74
2022/12/23 07:33:10;;;;;;;53.57;37.23;;;;;;;36.67;25.67;101175.78;5093203;28;20491;-74
2022/12/23 07:35:36;;;;;;;62.60;35.50;;;;;;;37.02;25.38;101183.47;5094609;28;20409;-73
2022/12/23 07:38:02;;;;;;;62.53;37.27;;;;;;;37.07;25.07;101187.97;5092632;28;20198;-74
2022/12/23 07:40:27;;;;;;;56.63;34.23;;;;;;;37.78;24.35;101188.81;5094930;28;20891;-74
2022/12/23 07:42:56;;;;;;;51.10;34.57;;;;;;;38.42;23.45;101198.75;5093012;28;20477;-74
2022/12/23 07:45:22;;;;;;;56.43;30.23;;;;;;;36.98;24.12;101205.97;5092213;28;20437;-76
2022/12/23 07:47:56;;;;;;;42.60;32.07;;;;;;;37.78;24.01;101213.16;5092296;28;20492;-74
2022/12/23 07:50:23;;;;;;;41.80;29.07;;;;;;;37.73;23.81;101211.34;5092590;28;20409;-73
2022/12/23 07:52:49;;;;;;;64.40;32.80;;;;;;;37.49;24.23;101207.94;5092973;28;20412;-74
2022/12/23 07:55:15;;;;;;;73.67;38.47;;;;;;;37.62;24.19;101202.56;5092521;28;20435;-74
2022/12/23 07:57:41;;;;;;;52.43;34.50;;;;;;;38.07;24.13;101212.97;5091446;28;20467;-76
2022/12/23 08:00:10;;;;;;;57.33;33.40;;;;;;;38.13;23.03;101223.41;5091505;28;20413;-72
2022/12/23 08:02:36;;;;;;;51.10;35.53;;;;;;;37.73;23.41;101229.50;5098002;28;20612;-77
2022/12/23 08:05:02;;;;;;;66.73;32.07;;;;;;;37.19;24.09;101233.53;5084047;28;20443;-76
2022/12/23 08:07:28;;;;;;;67.70;35.57;;;;;;;37.38;24.17;101221.66;5101120;28;20421;-76
2022/12/23 08:09:53;;;;;;;65.03;34.00;;;;;;;37.65;23.64;101225.56;5072415;28;20445;-75
2022/12/23 08:12:19;;;;;;;57.23;34.40;;;;;;;37.19;24.07;101237.03;5070174;28;20431;-76
2022/12/23 08:14:47;;;;;;;64.33;33.67;;;;;;;37.57;23.69;101243.28;5082991;28;20473;-75
2022/12/23 08:17:13;;;;;;;53.30;32.23;;;;;;;37.64;23.46;101238.28;5093203;28;20651;-76
2022/12/23 08:19:40;;;;;;;51.63;30.77;;;;;;;37.71;23.42;101237.13;5093389;28;20471;-77
2022/12/23 08:22:06;;;;;;;43.33;28.80;;;;;;;38.26;22.98;101248.09;5111838;28;20400;-75
2022/12/23 08:24:32;;;;;;;61.83;33.97;;;;;;;37.91;23.45;101245.72;5093364;28;20440;-77
2022/12/23 08:26:57;;;;;;;58.70;33.03;;;;;;;37.54;24.67;101240.34;5093288;28;20406;-76
2022/12/23 08:29:24;;;;;;;48.23;30.93;;;;;;;37.60;24.11;101237.28;5093550;28;20963;-77
2022/12/23 08:31:50;;;;;;;55.07;32.20;;;;;;;38.09;23.73;101240.56;5093297;28;20265;-79
2022/12/23 08:34:18;;;;;;;60.07;36.07;;;;;;;36.94;24.45;101245.50;5086322;28;20417;-77
2022/12/23 08:36:44;;;;;;;62.70;35.37;;;;;;;37.20;25.15;101260.31;5062950;28;20441;-76
2022/12/23 08:39:10;;;;;;;54.03;32.73;;;;;;;37.54;24.87;101257.38;5087057;28;20470;-74
2022/12/23 08:41:47;;;;;;;81.10;32.23;;;;;;;37.86;24.84;101255.84;5094932;28;20777;-77
2022/12/23 08:44:14;;;;;;;56.40;34.47;;;;;;;37.61;24.41;101254.31;5095025;28;20423;-78
2022/12/23 08:46:40;;;;;;;67.77;37.40;;;;;;;38.00;24.18;101256.69;5095289;28;20400;-75
2022/12/23 08:49:07;;;;;;;74.77;35.80;;;;;;;38.23;24.06;101248.69;5095069;28;20802;-78
2022/12/23 08:51:35;;;;;;;53.63;31.20;;;;;;;37.23;24.38;101246.19;5094820;28;20437;-79
2022/12/23 08:54:02;;;;;;;51.43;33.80;;;;;;;37.48;23.45;101250.44;5095059;28;20443;-77
2022/12/23 08:56:31;;;;;;;47.63;30.20;;;;;;;37.81;23.66;101243.22;5094701;28;20415;-76
2022/12/23 08:58:58;;;;;;;50.17;27.10;;;;;;;38.74;21.57;101240.44;5094758;28;20459;-77
2022/12/23 09:01:27;;;;;;;54.70;28.97;;;;;;;39.17;21.39;101242.81;5085725;28;20407;-76
2022/12/23 09:03:53;;;;;;;48.40;27.77;;;;;;;39.58;21.04;101244.56;5075207;28;20939;-77
2022/12/23 09:06:25;;;;;;;44.53;26.30;;;;;;;39.20;21.21;101237.56;5088919;28;20920;-76
2022/12/23 09:08:51;;;;;;;62.83;29.10;;;;;;;37.83;22.44;101226.66;5097404;28;20455;-79
2022/12/23 09:11:20;;;;;;;64.70;29.93;;;;;;;38.40;21.63;101235.41;5084999;28;20438;-76
2022/12/23 09:13:47;;;;;;;49.93;27.23;;;;;;;38.54;21.39;101238.91;5094704;28;20404;-79
2022/12/23 09:16:14;;;;;;;50.07;30.70;;;;;;;38.56;21.35;101230.50;5094672;28;20828;-80
2022/12/23 09:18:40;;;;;;;43.80;27.00;;;;;;;38.97;20.69;101223.13;5077145;28;20470;-80
2022/12/23 09:21:17;;;;;;;50.50;27.77;;;;;;;38.47;20.57;101232.28;5071517;28;20422;-78
2022/12/23 09:23:43;;;;;;;42.50;24.17;;;;;;;37.36;21.74;101234.66;5100483;28;20452;-79
2022/12/23 09:26:10;;;;;;;51.17;30.20;;;;;;;37.85;21.45;101235.28;5091421;28;20927;-79
2022/12/23 09:28:38;;;;;;;53.07;28.00;;;;;;;38.43;20.89;101222.06;5078269;28;20420;-79
2022/12/23 09:31:09;;;;;;;46.83;27.27;;;;;;;38.75;21.15;101233.13;5070986;28;20446;-77
2022/12/23 09:33:36;;;;;;;35.27;24.23;;;;;;;38.79;20.65;101240.31;5085277;28;20417;-80
2022/12/23 09:36:03;;;;;;;56.70;28.83;;;;;;;39.19;20.57;101227.81;5090954;28;20423;-77
2022/12/23 09:38:29;;;;;;;41.23;24.50;;;;;;;37.38;21.09;101232.47;5092299;28;20456;-77
2022/12/23 09:41:21;;;;;;;34.73;19.03;;;;;;;38.07;19.65;101212.97;5091173;28;20415;-77
2022/12/23 09:44:02;;;;;;;45.37;27.43;;;;;;;38.69;19.96;101235.91;5044853;28;20441;-77
2022/12/23 09:46:33;;;;;;;48.67;26.53;;;;;;;39.07;19.48;101232.16;5091403;28;20790;-76
2022/12/23 09:49:05;;;;;;;46.23;20.70;;;;;;;38.98;19.24;101226.66;5090669;28;20440;-77
2022/12/23 09:51:39;;;;;;;53.70;25.90;;;;;;;38.81;19.10;101221.06;5092085;28;20421;-81
2022/12/23 09:54:22;;;;;;;37.77;21.40;;;;;;;39.26;17.30;101210.31;5086475;28;20460;-81
2022/12/23 09:57:31;;;;;;;34.20;20.40;;;;;;;39.29;18.02;101221.38;5091608;28;20465;-81
2022/12/23 10:00:19;;;;;;;39.87;21.40;;;;;;;38.77;17.85;101199.16;5074030;28;20992;-79
2022/12/23 10:02:50;;;;;;;43.20;21.73;;;;;;;38.65;18.74;101224.03;5070840;28;20786;-81
2022/12/23 10:05:38;;;;;;;47.43;22.80;;;;;;;38.42;18.55;101209.59;5070966;28;20451;-79
2022/12/23 10:08:32;;;;;;;44.67;24.10;;;;;;;38.61;19.39;101223.06;5078744;28;20460;-80
2022/12/23 10:11:08;;;;;;;44.47;22.90;;;;;;;39.39;18.52;101229.25;5090952;28;20424;-80
2022/12/23 10:13:42;;;;;;;52.00;23.60;;;;;;;39.57;18.90;101226.69;5080102;28;20429;-76
2022/12/23 10:16:20;;;;;;;42.80;23.30;;;;;;;40.21;18.52;101221.84;5070556;28;20446;-76
2022/12/23 10:18:57;;;;;;;55.60;28.70;;;;;;;40.44;18.44;101225.25;5083760;28;20468;-77
2022/12/23 10:21:41;;;;;;;43.33;22.37;;;;;;;39.93;18.01;101219.25;5093609;28;20419;-79
2022/12/23 10:24:20;;;;;;;46.63;23.13;;;;;;;40.79;17.80;101218.00;5095126;28;20437;-79
2022/12/23 10:26:59;;;;;;;36.80;20.80;;;;;;;40.44;18.76;101217.91;5089372;28;20521;-78
2022/12/23 10:29:30;;;;;;;46.73;24.87;;;;;;;40.61;18.16;101216.38;5094261;28;20408;-76
2022/12/23 10:32:33;;;;;;;31.80;21.47;;;;;;;39.30;19.13;101219.47;5092429;28;20818;-75
2022/12/23 10:35:34;;;;;;;41.87;23.37;;;;;;;39.86;19.21;101207.25;5073909;28;20414;-75
2022/12/23 10:38:15;;;;;;;38.20;24.53;;;;;;;40.56;18.50;101198.28;5097304;28;20444;-78
2022/12/23 10:41:13;;;;;;;47.20;25.53;;;;;;;40.33;18.75;101189.41;5094234;28;20420;-75
2022/12/23 10:44:12;;;;;;;57.50;27.47;;;;;;;40.15;18.79;101179.59;5094006;28;20981;-75
2022/12/23 10:47:02;;;;;;;39.80;26.07;;;;;;;41.00;18.49;101175.47;5075336;28;20430;-76
2022/12/23 10:49:51;;;;;;;54.07;27.50;;;;;;;39.65;19.69;101177.88;5092499;28;20420;-76
2022/12/23 10:52:20;;;;;;;53.27;28.03;;;;;;;40.50;19.36;101175.09;5094105;28;20424;-77
2022/12/23 10:54:47;;;;;;;49.17;26.47;;;;;;;40.59;18.61;101172.41;5093993;28;20448;-78
2022/12/23 10:57:16;;;;;;;43.67;26.20;;;;;;;40.84;18.55;101163.47;5093907;28;20421;-74
2022/12/23 10:59:42;;;;;;;46.93;27.60;;;;;;;41.10;18.61;101168.94;5077708;28;20449;-77
2022/12/23 11:02:11;;;;;;;28.87;23.87;;;;;;;41.03;18.83;101169.41;5093002;28;20460;-77
2022/12/23 11:04:38;;;;;;;45.47;25.20;;;;;;;41.28;18.48;101165.06;5093635;28;20433;-79
2022/12/23 11:07:07;;;;;;;43.67;27.10;;;;;;;40.92;18.94;101156.44;5093722;28;20504;-79
2022/12/23 11:10:12;;;;;;;42.93;25.83;;;;;;;40.90;18.55;101147.78;5086496;28;20558;-81
2022/12/23 11:12:45;;;;;;;39.30;23.80;;;;;;;40.53;18.25;101150.00;5091392;28;20463;-78
2022/12/23 11:15:35;;;;;;;34.83;21.70;;;;;;;39.88;18.98;101137.91;5093928;28;20420;-78
2022/12/23 11:18:12;;;;;;;39.87;24.80;;;;;;;40.58;18.45;101138.13;5083074;28;20469;-80
2022/12/23 11:20:41;;;;;;;51.27;25.27;;;;;;;40.49;18.52;101127.25;5093640;28;20425;-79
2022/12/23 11:23:28;;;;;;;52.70;25.90;;;;;;;41.56;17.72;101124.69;5093665;28;20421;-80
2022/12/23 11:26:20;;;;;;;31.43;23.87;;;;;;;40.45;18.12;101120.81;5073191;28;20410;-80
2022/12/23 11:28:56;;;;;;;47.23;22.57;;;;;;;40.70;18.45;101119.28;5082796;28;20417;-76
2022/12/23 11:31:27;;;;;;;59.57;24.70;;;;;;;41.23;17.71;101110.00;5088444;28;20433;-78
2022/12/23 11:34:15;;;;;;;42.27;22.20;;;;;;;39.56;17.82;101111.84;5085921;28;20842;-77
2022/12/23 12:11:12;;;;;;;33.07;21.37;;;;;;;41.86;16.50;101048.44;5123322;27;20975;-72
2022/12/23 12:13:41;;;;;;;41.60;24.10;;;;;;;41.31;16.47;101036.50;5085461;28;20458;-72
2022/12/23 12:16:15;;;;;;;40.93;22.00;;;;;;;41.86;16.13;101029.38;5082818;28;20528;-72
2022/12/23 12:18:45;;;;;;;54.47;21.73;;;;;;;41.90;16.25;101013.97;5091181;28;20451;-72
2022/12/23 12:21:22;;;;;;;46.30;24.00;;;;;;;41.81;16.18;101008.59;5109248;28;20507;-73
2022/12/23 12:24:03;;;;;;;31.83;21.80;;;;;;;41.52;16.27;101005.84;5086468;28;20431;-74
2022/12/23 12:26:33;;;;;;;43.93;20.10;;;;;;;42.33;15.82;101001.97;5078614;28;20518;-74